sensor_id;sensor_type;location;lat;lon;timestamp;P1;durP1;ratioP1;P2;durP2;ratioP2
68375;SDS011;55318;52.068;5.188;2022-10-19T00:00:59;2.5;;;1.6;;
68375;SDS011;55318;52.068;5.188;2022-10-19T00:02:36;1.9;;;1.4;;
68375;SDS011;55318;52.068;5.188;2022-10-19T00:04:13;2.4;;;1.6;;
68375;SDS011;55318;52.068;5.188;2022-10-19T00:05:49;2.21;;;1.5;;
68375;SDS011;55318;52.068;5.188;2022-10-19T00:09:02;2.5;;;1.6;;
68375;SDS011;55318;52.068;5.188;2022-10-19T00:10:40;1.9;;;1.5;;
68375;SDS011;55318;52.068;5.188;2022-10-19T00:12:17;2.7;;;1.5;;
68375;SDS011;55318;52.068;5.188;2022-10-19T00:15:32;6.7;;;2.6;;
68375;SDS011;55318;52.068;5.188;2022-10-19T00:17:08;7.4;;;2.1;;
68375;SDS011;55318;52.068;5.188;2022-10-19T00:18:44;2.8;;;1.7;;
68375;SDS011;55318;52.068;5.188;2022-10-19T00:21:57;2.0;;;1.6;;
68375;SDS011;55318;52.068;5.188;2022-10-19T00:23:33;3.2;;;1.7;;
68375;SDS011;55318;52.068;5.188;2022-10-19T00:25:09;3.6;;;1.6;;
68375;SDS011;55318;52.068;5.188;2022-10-19T00:26:46;3.2;;;1.6;;
68375;SDS011;55318;52.068;5.188;2022-10-19T00:29:58;2.4;;;1.3;;
68375;SDS011;55318;52.068;5.188;2022-10-19T00:31:34;1.3;;;1.11;;
68375;SDS011;55318;52.068;5.188;2022-10-19T00:33:10;2.21;;;1.8;;
68375;SDS011;55318;52.068;5.188;2022-10-19T00:36:23;2.21;;;1.6;;
68375;SDS011;55318;52.068;5.188;2022-10-19T00:38:01;4.2;;;1.5;;
68375;SDS011;55318;52.068;5.188;2022-10-19T00:39:38;2.9;;;1.4;;
68375;SDS011;55318;52.068;5.188;2022-10-19T00:42:53;3.6;;;2.0;;
68375;SDS011;55318;52.068;5.188;2022-10-19T00:45:04;2.9;;;2.1;;
68375;SDS011;55318;52.068;5.188;2022-10-19T00:46:48;1.9;;;1.6;;
68375;SDS011;55318;52.068;5.188;2022-10-19T00:48:25;3.0;;;1.9;;
68375;SDS011;55318;52.068;5.188;2022-10-19T00:50:07;5.0;;;2.1;;
68375;SDS011;55318;52.068;5.188;2022-10-19T00:53:27;2.5;;;1.6;;
68375;SDS011;55318;52.068;5.188;2022-10-19T00:55:05;3.9;;;1.7;;
68375;SDS011;55318;52.068;5.188;2022-10-19T00:56:44;3.8;;;2.5;;
68375;SDS011;55318;52.068;5.188;2022-10-19T00:58:22;5.11;;;2.4;;
68375;SDS011;55318;52.068;5.188;2022-10-19T01:01:41;4.41;;;2.5;;
68375;SDS011;55318;52.068;5.188;2022-10-19T01:03:19;3.0;;;2.0;;
68375;SDS011;55318;52.068;5.188;2022-10-19T01:04:55;3.1;;;2.21;;
68375;SDS011;55318;52.068;5.188;2022-10-19T01:06:34;4.1;;;2.1;;
68375;SDS011;55318;52.068;5.188;2022-10-19T01:09:47;2.7;;;1.8;;
68375;SDS011;55318;52.068;5.188;2022-10-19T01:11:27;4.41;;;2.31;;
68375;SDS011;55318;52.068;5.188;2022-10-19T01:13:22;5.5;;;2.0;;
68375;SDS011;55318;52.068;5.188;2022-10-19T01:15:12;4.7;;;2.0;;
68375;SDS011;55318;52.068;5.188;2022-10-19T01:17:00;3.3;;;1.8;;
68375;SDS011;55318;52.068;5.188;2022-10-19T01:20:40;3.0;;;1.8;;
68375;SDS011;55318;52.068;5.188;2022-10-19T01:22:46;4.7;;;2.7;;
68375;SDS011;55318;52.068;5.188;2022-10-19T01:24:41;5.5;;;1.9;;
68375;SDS011;55318;52.068;5.188;2022-10-19T01:26:32;4.41;;;3.0;;
68375;SDS011;55318;52.068;5.188;2022-10-19T01:29:16;2.5;;;1.8;;
68375;SDS011;55318;52.068;5.188;2022-10-19T01:31:03;2.21;;;2.0;;
68375;SDS011;55318;52.068;5.188;2022-10-19T01:32:52;3.3;;;1.9;;
68375;SDS011;55318;52.068;5.188;2022-10-19T01:34:39;2.31;;;1.6;;
68375;SDS011;55318;52.068;5.188;2022-10-19T01:36:25;2.21;;;1.7;;
68375;SDS011;55318;52.068;5.188;2022-10-19T01:38:15;2.1;;;1.6;;
68375;SDS011;55318;52.068;5.188;2022-10-19T01:40:03;4.0;;;1.9;;
68375;SDS011;55318;52.068;5.188;2022-10-19T01:43:36;2.6;;;2.0;;
68375;SDS011;55318;52.068;5.188;2022-10-19T01:45:18;4.5;;;1.9;;
68375;SDS011;55318;52.068;5.188;2022-10-19T01:47:02;2.4;;;1.7;;
68375;SDS011;55318;52.068;5.188;2022-10-19T01:48:50;2.21;;;1.7;;
68375;SDS011;55318;52.068;5.188;2022-10-19T01:50:30;3.0;;;2.21;;
68375;SDS011;55318;52.068;5.188;2022-10-19T01:53:54;3.6;;;1.7;;
68375;SDS011;55318;52.068;5.188;2022-10-19T01:55:36;1.9;;;1.6;;
68375;SDS011;55318;52.068;5.188;2022-10-19T01:57:18;4.8;;;1.8;;
68375;SDS011;55318;52.068;5.188;2022-10-19T01:59:00;2.0;;;1.8;;
68375;SDS011;55318;52.068;5.188;2022-10-19T02:02:21;3.1;;;2.0;;
68375;SDS011;55318;52.068;5.188;2022-10-19T02:04:00;2.8;;;1.7;;
68375;SDS011;55318;52.068;5.188;2022-10-19T02:05:38;2.31;;;1.7;;
68375;SDS011;55318;52.068;5.188;2022-10-19T02:07:16;2.21;;;1.5;;
68375;SDS011;55318;52.068;5.188;2022-10-19T02:10:35;2.7;;;1.8;;
68375;SDS011;55318;52.068;5.188;2022-10-19T02:12:14;3.5;;;1.9;;
68375;SDS011;55318;52.068;5.188;2022-10-19T02:13:53;3.5;;;1.7;;
68375;SDS011;55318;52.068;5.188;2022-10-19T02:15:34;2.9;;;1.9;;
68375;SDS011;55318;52.068;5.188;2022-10-19T02:18:56;2.31;;;1.7;;
68375;SDS011;55318;52.068;5.188;2022-10-19T02:20:35;2.7;;;1.7;;
68375;SDS011;55318;52.068;5.188;2022-10-19T02:22:12;1.8;;;1.4;;
68375;SDS011;55318;52.068;5.188;2022-10-19T02:25:25;3.3;;;1.4;;
68375;SDS011;55318;52.068;5.188;2022-10-19T02:27:04;2.0;;;1.3;;
68375;SDS011;55318;52.068;5.188;2022-10-19T02:28:42;2.21;;;1.5;;
68375;SDS011;55318;52.068;5.188;2022-10-19T02:30:20;1.6;;;1.5;;
68375;SDS011;55318;52.068;5.188;2022-10-19T02:33:32;2.31;;;1.5;;
68375;SDS011;55318;52.068;5.188;2022-10-19T02:35:09;2.4;;;1.7;;
68375;SDS011;55318;52.068;5.188;2022-10-19T02:36:47;1.8;;;1.7;;
68375;SDS011;55318;52.068;5.188;2022-10-19T02:40:01;1.8;;;1.4;;
68375;SDS011;55318;52.068;5.188;2022-10-19T02:41:40;3.4;;;1.7;;
68375;SDS011;55318;52.068;5.188;2022-10-19T02:43:22;2.9;;;1.8;;
68375;SDS011;55318;52.068;5.188;2022-10-19T02:45:01;2.7;;;1.9;;
68375;SDS011;55318;52.068;5.188;2022-10-19T02:48:27;1.8;;;1.4;;
68375;SDS011;55318;52.068;5.188;2022-10-19T02:50:07;2.21;;;1.6;;
68375;SDS011;55318;52.068;5.188;2022-10-19T02:51:54;1.9;;;1.6;;
68375;SDS011;55318;52.068;5.188;2022-10-19T02:53:34;1.5;;;1.4;;
68375;SDS011;55318;52.068;5.188;2022-10-19T02:56:46;2.31;;;1.3;;
68375;SDS011;55318;52.068;5.188;2022-10-19T02:58:22;1.7;;;1.5;;
68375;SDS011;55318;52.068;5.188;2022-10-19T02:59:58;1.7;;;1.6;;
68375;SDS011;55318;52.068;5.188;2022-10-19T03:01:35;4.0;;;2.31;;
68375;SDS011;55318;52.068;5.188;2022-10-19T03:04:47;1.7;;;1.6;;
68375;SDS011;55318;52.068;5.188;2022-10-19T03:06:23;2.7;;;1.9;;
68375;SDS011;55318;52.068;5.188;2022-10-19T03:07:59;2.5;;;1.8;;
68375;SDS011;55318;52.068;5.188;2022-10-19T03:11:11;4.61;;;2.21;;
68375;SDS011;55318;52.068;5.188;2022-10-19T03:12:47;3.2;;;1.3;;
68375;SDS011;55318;52.068;5.188;2022-10-19T03:14:24;2.21;;;1.8;;
68375;SDS011;55318;52.068;5.188;2022-10-19T03:17:42;3.0;;;1.8;;
68375;SDS011;55318;52.068;5.188;2022-10-19T03:19:18;3.1;;;1.4;;
68375;SDS011;55318;52.068;5.188;2022-10-19T03:21:02;3.1;;;2.0;;
68375;SDS011;55318;52.068;5.188;2022-10-19T03:22:40;1.7;;;1.5;;
68375;SDS011;55318;52.068;5.188;2022-10-19T03:25:53;2.8;;;1.8;;
68375;SDS011;55318;52.068;5.188;2022-10-19T03:27:29;1.5;;;1.4;;
68375;SDS011;55318;52.068;5.188;2022-10-19T03:29:05;2.8;;;1.8;;
68375;SDS011;55318;52.068;5.188;2022-10-19T03:32:17;2.5;;;1.4;;
68375;SDS011;55318;52.068;5.188;2022-10-19T03:33:53;2.6;;;1.5;;
68375;SDS011;55318;52.068;5.188;2022-10-19T03:35:29;2.7;;;1.6;;
68375;SDS011;55318;52.068;5.188;2022-10-19T03:37:07;4.0;;;1.8;;
68375;SDS011;55318;52.068;5.188;2022-10-19T03:40:20;2.6;;;1.7;;
68375;SDS011;55318;52.068;5.188;2022-10-19T03:41:56;2.1;;;1.7;;
68375;SDS011;55318;52.068;5.188;2022-10-19T03:43:32;2.0;;;1.4;;
68375;SDS011;55318;52.068;5.188;2022-10-19T03:46:45;2.7;;;1.8;;
68375;SDS011;55318;52.068;5.188;2022-10-19T03:48:22;1.9;;;1.4;;
68375;SDS011;55318;52.068;5.188;2022-10-19T03:49:58;3.2;;;1.6;;
68375;SDS011;55318;52.068;5.188;2022-10-19T03:53:11;3.7;;;1.6;;
68375;SDS011;55318;52.068;5.188;2022-10-19T03:54:48;3.0;;;1.6;;
68375;SDS011;55318;52.068;5.188;2022-10-19T03:56:26;1.8;;;1.4;;
68375;SDS011;55318;52.068;5.188;2022-10-19T03:58:04;2.4;;;1.4;;
68375;SDS011;55318;52.068;5.188;2022-10-19T04:01:17;3.1;;;1.5;;
68375;SDS011;55318;52.068;5.188;2022-10-19T04:02:56;15.2;;;1.8;;
68375;SDS011;55318;52.068;5.188;2022-10-19T04:04:32;2.1;;;1.3;;
68375;SDS011;55318;52.068;5.188;2022-10-19T04:07:48;3.6;;;1.4;;
68375;SDS011;55318;52.068;5.188;2022-10-19T04:09:24;4.61;;;1.3;;
68375;SDS011;55318;52.068;5.188;2022-10-19T04:11:01;3.1;;;1.2;;
68375;SDS011;55318;52.068;5.188;2022-10-19T04:12:40;2.8;;;1.11;;
68375;SDS011;55318;52.068;5.188;2022-10-19T04:15:55;3.4;;;1.5;;
68375;SDS011;55318;52.068;5.188;2022-10-19T04:17:32;3.0;;;1.3;;
68375;SDS011;55318;52.068;5.188;2022-10-19T04:19:08;2.8;;;1.3;;
68375;SDS011;55318;52.068;5.188;2022-10-19T04:22:30;4.5;;;1.4;;
68375;SDS011;55318;52.068;5.188;2022-10-19T04:24:07;6.3;;;2.0;;
68375;SDS011;55318;52.068;5.188;2022-10-19T04:25:46;2.6;;;1.2;;
68375;SDS011;55318;52.068;5.188;2022-10-19T04:27:22;1.8;;;1.11;;
68375;SDS011;55318;52.068;5.188;2022-10-19T04:30:35;1.4;;;1.3;;
68375;SDS011;55318;52.068;5.188;2022-10-19T04:32:11;6.1;;;1.5;;
68375;SDS011;55318;52.068;5.188;2022-10-19T04:33:47;2.1;;;1.2;;
68375;SDS011;55318;52.068;5.188;2022-10-19T04:37:00;3.1;;;1.8;;
68375;SDS011;55318;52.068;5.188;2022-10-19T04:38:36;2.6;;;1.6;;
68375;SDS011;55318;52.068;5.188;2022-10-19T04:40:13;1.8;;;1.4;;
68375;SDS011;55318;52.068;5.188;2022-10-19T04:43:25;1.5;;;1.4;;
68375;SDS011;55318;52.068;5.188;2022-10-19T04:45:01;2.6;;;1.2;;
68375;SDS011;55318;52.068;5.188;2022-10-19T04:46:39;1.9;;;1.5;;
68375;SDS011;55318;52.068;5.188;2022-10-19T04:48:15;2.7;;;1.9;;
68375;SDS011;55318;52.068;5.188;2022-10-19T04:51:29;1.5;;;1.4;;
68375;SDS011;55318;52.068;5.188;2022-10-19T04:53:05;7.3;;;1.3;;
68375;SDS011;55318;52.068;5.188;2022-10-19T04:54:41;3.0;;;1.2;;
68375;SDS011;55318;52.068;5.188;2022-10-19T04:57:56;2.6;;;1.7;;
68375;SDS011;55318;52.068;5.188;2022-10-19T04:59:32;1.5;;;1.4;;
68375;SDS011;55318;52.068;5.188;2022-10-19T05:01:09;3.2;;;1.7;;
68375;SDS011;55318;52.068;5.188;2022-10-19T05:04:23;5.0;;;1.5;;
68375;SDS011;55318;52.068;5.188;2022-10-19T05:05:59;2.5;;;1.4;;
68375;SDS011;55318;52.068;5.188;2022-10-19T05:07:35;1.6;;;1.5;;
68375;SDS011;55318;52.068;5.188;2022-10-19T05:09:11;3.5;;;1.9;;
68375;SDS011;55318;52.068;5.188;2022-10-19T05:12:23;2.9;;;1.7;;
68375;SDS011;55318;52.068;5.188;2022-10-19T05:13:59;1.7;;;1.4;;
68375;SDS011;55318;52.068;5.188;2022-10-19T05:15:36;1.5;;;1.3;;
68375;SDS011;55318;52.068;5.188;2022-10-19T05:18:48;2.7;;;1.7;;
68375;SDS011;55318;52.068;5.188;2022-10-19T05:20:26;1.4;;;1.3;;
68375;SDS011;55318;52.068;5.188;2022-10-19T05:22:02;3.1;;;1.9;;
68375;SDS011;55318;52.068;5.188;2022-10-19T05:25:15;2.9;;;1.4;;
68375;SDS011;55318;52.068;5.188;2022-10-19T05:26:52;3.6;;;1.8;;
68375;SDS011;55318;52.068;5.188;2022-10-19T05:28:29;3.6;;;1.8;;
68375;SDS011;55318;52.068;5.188;2022-10-19T05:30:07;1.5;;;1.4;;
68375;SDS011;55318;52.068;5.188;2022-10-19T05:33:20;2.21;;;1.4;;
68375;SDS011;55318;52.068;5.188;2022-10-19T05:34:56;4.2;;;1.6;;
68375;SDS011;55318;52.068;5.188;2022-10-19T05:36:34;2.21;;;1.5;;
68375;SDS011;55318;52.068;5.188;2022-10-19T05:39:48;2.31;;;2.0;;
68375;SDS011;55318;52.068;5.188;2022-10-19T05:41:25;2.1;;;1.2;;
68375;SDS011;55318;52.068;5.188;2022-10-19T05:43:01;2.31;;;1.4;;
68375;SDS011;55318;52.068;5.188;2022-10-19T05:46:13;3.1;;;2.1;;
68375;SDS011;55318;52.068;5.188;2022-10-19T05:47:51;3.3;;;1.3;;
68375;SDS011;55318;52.068;5.188;2022-10-19T05:49:27;2.6;;;1.3;;
68375;SDS011;55318;52.068;5.188;2022-10-19T05:51:05;2.0;;;1.11;;
68375;SDS011;55318;52.068;5.188;2022-10-19T05:54:19;2.9;;;2.0;;
68375;SDS011;55318;52.068;5.188;2022-10-19T05:55:56;2.31;;;1.7;;
68375;SDS011;55318;52.068;5.188;2022-10-19T05:57:32;2.8;;;1.5;;
68375;SDS011;55318;52.068;5.188;2022-10-19T06:00:50;2.5;;;1.5;;
68375;SDS011;55318;52.068;5.188;2022-10-19T06:02:27;2.8;;;1.3;;
68375;SDS011;55318;52.068;5.188;2022-10-19T06:04:04;2.7;;;1.11;;
68375;SDS011;55318;52.068;5.188;2022-10-19T06:05:40;2.4;;;1.3;;
68375;SDS011;55318;52.068;5.188;2022-10-19T06:08:53;4.0;;;1.9;;
68375;SDS011;55318;52.068;5.188;2022-10-19T06:10:31;5.11;;;1.5;;
68375;SDS011;55318;52.068;5.188;2022-10-19T06:12:08;5.9;;;1.7;;
68375;SDS011;55318;52.068;5.188;2022-10-19T06:15:22;2.31;;;1.8;;
68375;SDS011;55318;52.068;5.188;2022-10-19T06:16:58;3.8;;;1.9;;
68375;SDS011;55318;52.068;5.188;2022-10-19T06:18:35;2.8;;;1.4;;
68375;SDS011;55318;52.068;5.188;2022-10-19T06:21:49;4.0;;;1.6;;
68375;SDS011;55318;52.068;5.188;2022-10-19T06:23:25;1.3;;;0.9;;
68375;SDS011;55318;52.068;5.188;2022-10-19T06:25:01;1.3;;;1.0;;
68375;SDS011;55318;52.068;5.188;2022-10-19T06:26:37;1.5;;;1.11;;
68375;SDS011;55318;52.068;5.188;2022-10-19T06:29:50;3.6;;;1.5;;
68375;SDS011;55318;52.068;5.188;2022-10-19T06:31:26;3.4;;;1.7;;
68375;SDS011;55318;52.068;5.188;2022-10-19T06:33:03;2.0;;;1.11;;
68375;SDS011;55318;52.068;5.188;2022-10-19T06:36:16;2.1;;;1.11;;
68375;SDS011;55318;52.068;5.188;2022-10-19T06:37:54;2.21;;;1.11;;
68375;SDS011;55318;52.068;5.188;2022-10-19T06:39:32;2.5;;;1.5;;
68375;SDS011;55318;52.068;5.188;2022-10-19T06:42:45;2.1;;;1.0;;
68375;SDS011;55318;52.068;5.188;2022-10-19T06:44:20;3.5;;;1.2;;
68375;SDS011;55318;52.068;5.188;2022-10-19T06:45:56;1.9;;;1.11;;
68375;SDS011;55318;52.068;5.188;2022-10-19T06:47:34;1.9;;;1.0;;
68375;SDS011;55318;52.068;5.188;2022-10-19T06:50:54;2.1;;;1.11;;
68375;SDS011;55318;52.068;5.188;2022-10-19T06:52:31;2.31;;;1.0;;
68375;SDS011;55318;52.068;5.188;2022-10-19T06:54:08;3.5;;;1.3;;
68375;SDS011;55318;52.068;5.188;2022-10-19T06:57:21;4.91;;;1.5;;
68375;SDS011;55318;52.068;5.188;2022-10-19T06:58:57;5.7;;;0.9;;
68375;SDS011;55318;52.068;5.188;2022-10-19T07:00:34;3.5;;;1.11;;
68375;SDS011;55318;52.068;5.188;2022-10-19T07:02:10;2.1;;;1.2;;
68375;SDS011;55318;52.068;5.188;2022-10-19T07:05:25;2.9;;;1.7;;
68375;SDS011;55318;52.068;5.188;2022-10-19T07:07:00;3.6;;;1.0;;
68375;SDS011;55318;52.068;5.188;2022-10-19T07:08:37;4.7;;;1.4;;
68375;SDS011;55318;52.068;5.188;2022-10-19T07:11:51;3.0;;;1.6;;
68375;SDS011;55318;52.068;5.188;2022-10-19T07:13:28;4.8;;;1.4;;
68375;SDS011;55318;52.068;5.188;2022-10-19T07:15:06;1.6;;;1.2;;
68375;SDS011;55318;52.068;5.188;2022-10-19T07:18:19;1.9;;;1.2;;
68375;SDS011;55318;52.068;5.188;2022-10-19T07:19:55;3.1;;;1.0;;
68375;SDS011;55318;52.068;5.188;2022-10-19T07:21:32;2.6;;;1.5;;
68375;SDS011;55318;52.068;5.188;2022-10-19T07:23:08;2.0;;;1.3;;
68375;SDS011;55318;52.068;5.188;2022-10-19T07:26:23;1.3;;;1.2;;
68375;SDS011;55318;52.068;5.188;2022-10-19T07:28:01;2.4;;;0.9;;
68375;SDS011;55318;52.068;5.188;2022-10-19T07:29:38;3.4;;;1.6;;
68375;SDS011;55318;52.068;5.188;2022-10-19T07:32:57;4.5;;;1.4;;
68375;SDS011;55318;52.068;5.188;2022-10-19T07:34:33;4.5;;;1.4;;
68375;SDS011;55318;52.068;5.188;2022-10-19T07:36:09;2.6;;;1.4;;
68375;SDS011;55318;52.068;5.188;2022-10-19T07:37:47;3.7;;;1.4;;
68375;SDS011;55318;52.068;5.188;2022-10-19T07:41:01;1.8;;;1.6;;
68375;SDS011;55318;52.068;5.188;2022-10-19T07:42:40;5.6;;;1.8;;
68375;SDS011;55318;52.068;5.188;2022-10-19T07:44:17;2.21;;;1.11;;
68375;SDS011;55318;52.068;5.188;2022-10-19T07:47:32;1.5;;;0.8;;
68375;SDS011;55318;52.068;5.188;2022-10-19T07:49:10;1.6;;;1.3;;
68375;SDS011;55318;52.068;5.188;2022-10-19T07:50:49;2.31;;;1.0;;
68375;SDS011;55318;52.068;5.188;2022-10-19T07:52:25;1.11;;;0.8;;
68375;SDS011;55318;52.068;5.188;2022-10-19T07:55:39;1.5;;;1.0;;
68375;SDS011;55318;52.068;5.188;2022-10-19T07:57:15;2.4;;;1.6;;
68375;SDS011;55318;52.068;5.188;2022-10-19T07:58:52;2.0;;;1.0;;
68375;SDS011;55318;52.068;5.188;2022-10-19T08:02:08;1.4;;;0.8;;
68375;SDS011;55318;52.068;5.188;2022-10-19T08:03:50;1.7;;;0.7;;
68375;SDS011;55318;52.068;5.188;2022-10-19T08:05:28;2.8;;;1.2;;
68375;SDS011;55318;52.068;5.188;2022-10-19T08:07:07;7.7;;;1.11;;
68375;SDS011;55318;52.068;5.188;2022-10-19T08:10:23;2.5;;;0.8;;
68375;SDS011;55318;52.068;5.188;2022-10-19T08:11:59;4.3;;;1.4;;
68375;SDS011;55318;52.068;5.188;2022-10-19T08:13:37;1.4;;;1.11;;
68375;SDS011;55318;52.068;5.188;2022-10-19T08:16:50;2.9;;;1.3;;
68375;SDS011;55318;52.068;5.188;2022-10-19T08:18:26;2.7;;;0.9;;
68375;SDS011;55318;52.068;5.188;2022-10-19T08:20:04;2.1;;;0.9;;
68375;SDS011;55318;52.068;5.188;2022-10-19T08:21:42;1.2;;;1.11;;
68375;SDS011;55318;52.068;5.188;2022-10-19T08:24:59;2.7;;;0.8;;
68375;SDS011;55318;52.068;5.188;2022-10-19T08:26:36;1.9;;;1.0;;
68375;SDS011;55318;52.068;5.188;2022-10-19T08:28:13;2.1;;;1.4;;
68375;SDS011;55318;52.068;5.188;2022-10-19T08:31:26;5.5;;;1.11;;
68375;SDS011;55318;52.068;5.188;2022-10-19T08:33:06;2.0;;;0.9;;
68375;SDS011;55318;52.068;5.188;2022-10-19T08:34:43;1.11;;;0.9;;
68375;SDS011;55318;52.068;5.188;2022-10-19T08:36:19;2.0;;;1.0;;
68375;SDS011;55318;52.068;5.188;2022-10-19T08:39:31;5.8;;;1.8;;
68375;SDS011;55318;52.068;5.188;2022-10-19T08:41:12;4.8;;;1.5;;
68375;SDS011;55318;52.068;5.188;2022-10-19T08:42:57;2.21;;;1.3;;
68375;SDS011;55318;52.068;5.188;2022-10-19T08:44:46;2.6;;;0.9;;
68375;SDS011;55318;52.068;5.188;2022-10-19T08:48:32;4.41;;;1.2;;
68375;SDS011;55318;52.068;5.188;2022-10-19T08:50:14;7.6;;;1.0;;
68375;SDS011;55318;52.068;5.188;2022-10-19T08:51:56;3.9;;;1.8;;
68375;SDS011;55318;52.068;5.188;2022-10-19T08:53:36;2.1;;;1.11;;
68375;SDS011;55318;52.068;5.188;2022-10-19T08:55:30;2.1;;;1.3;;
68375;SDS011;55318;52.068;5.188;2022-10-19T08:57:21;4.0;;;1.2;;
68375;SDS011;55318;52.068;5.188;2022-10-19T09:00:54;1.9;;;1.11;;
68375;SDS011;55318;52.068;5.188;2022-10-19T09:02:43;3.9;;;0.9;;
68375;SDS011;55318;52.068;5.188;2022-10-19T09:04:31;3.4;;;1.11;;
68375;SDS011;55318;52.068;5.188;2022-10-19T09:06:17;3.2;;;1.3;;
68375;SDS011;55318;52.068;5.188;2022-10-19T09:07:59;2.4;;;1.0;;
68375;SDS011;55318;52.068;5.188;2022-10-19T09:11:18;2.1;;;1.5;;
68375;SDS011;55318;52.068;5.188;2022-10-19T09:12:58;1.6;;;0.8;;
68375;SDS011;55318;52.068;5.188;2022-10-19T09:14:39;4.1;;;1.0;;
68375;SDS011;55318;52.068;5.188;2022-10-19T09:16:28;1.5;;;1.11;;
68375;SDS011;55318;52.068;5.188;2022-10-19T09:18:04;7.9;;;1.4;;
68375;SDS011;55318;52.068;5.188;2022-10-19T09:21:25;2.21;;;1.0;;
68375;SDS011;55318;52.068;5.188;2022-10-19T09:23:11;6.2;;;1.2;;
68375;SDS011;55318;52.068;5.188;2022-10-19T09:24:56;5.9;;;1.2;;
68375;SDS011;55318;52.068;5.188;2022-10-19T09:26:39;1.3;;;1.0;;
68375;SDS011;55318;52.068;5.188;2022-10-19T09:30:18;2.6;;;1.3;;
68375;SDS011;55318;52.068;5.188;2022-10-19T09:31:57;1.8;;;1.2;;
68375;SDS011;55318;52.068;5.188;2022-10-19T09:33:38;1.2;;;1.11;;
68375;SDS011;55318;52.068;5.188;2022-10-19T09:35:19;2.31;;;1.3;;
68375;SDS011;55318;52.068;5.188;2022-10-19T09:37:01;2.21;;;1.11;;
68375;SDS011;55318;52.068;5.188;2022-10-19T09:40:16;1.5;;;0.9;;
68375;SDS011;55318;52.068;5.188;2022-10-19T09:41:55;1.7;;;1.6;;
68375;SDS011;55318;52.068;5.188;2022-10-19T09:43:33;3.4;;;1.11;;
68375;SDS011;55318;52.068;5.188;2022-10-19T09:46:55;4.3;;;1.7;;
68375;SDS011;55318;52.068;5.188;2022-10-19T09:48:54;2.31;;;1.0;;
68375;SDS011;55318;52.068;5.188;2022-10-19T09:50:33;4.3;;;1.0;;
68375;SDS011;55318;52.068;5.188;2022-10-19T09:52:28;3.8;;;1.3;;
68375;SDS011;55318;52.068;5.188;2022-10-19T09:54:21;1.5;;;1.2;;
68375;SDS011;55318;52.068;5.188;2022-10-19T09:56:02;2.7;;;1.4;;
68375;SDS011;55318;52.068;5.188;2022-10-19T09:59:19;2.31;;;1.3;;
68375;SDS011;55318;52.068;5.188;2022-10-19T10:01:00;1.8;;;1.0;;
68375;SDS011;55318;52.068;5.188;2022-10-19T10:02:37;1.0;;;0.9;;
68375;SDS011;55318;52.068;5.188;2022-10-19T10:04:14;2.6;;;1.2;;
68375;SDS011;55318;52.068;5.188;2022-10-19T10:07:33;1.3;;;1.0;;
68375;SDS011;55318;52.068;5.188;2022-10-19T10:09:13;1.3;;;0.7;;
68375;SDS011;55318;52.068;5.188;2022-10-19T10:10:53;2.5;;;0.9;;
68375;SDS011;55318;52.068;5.188;2022-10-19T10:12:34;2.1;;;1.4;;
68375;SDS011;55318;52.068;5.188;2022-10-19T10:15:57;1.4;;;1.3;;
68375;SDS011;55318;52.068;5.188;2022-10-19T10:17:37;1.8;;;1.2;;
68375;SDS011;55318;52.068;5.188;2022-10-19T10:19:14;1.6;;;0.6;;
68375;SDS011;55318;52.068;5.188;2022-10-19T10:20:56;3.0;;;0.9;;
68375;SDS011;55318;52.068;5.188;2022-10-19T10:24:16;2.6;;;0.8;;
68375;SDS011;55318;52.068;5.188;2022-10-19T10:25:55;0.8;;;0.7;;
68375;SDS011;55318;52.068;5.188;2022-10-19T10:27:34;1.9;;;0.6;;
68375;SDS011;55318;52.068;5.188;2022-10-19T10:29:16;2.1;;;0.9;;
68375;SDS011;55318;52.068;5.188;2022-10-19T10:32:41;0.6;;;0.6;;
68375;SDS011;55318;52.068;5.188;2022-10-19T10:34:29;2.31;;;0.9;;
68375;SDS011;55318;52.068;5.188;2022-10-19T10:36:09;2.21;;;0.9;;
68375;SDS011;55318;52.068;5.188;2022-10-19T10:37:46;2.31;;;0.9;;
68375;SDS011;55318;52.068;5.188;2022-10-19T10:41:03;2.31;;;1.2;;
68375;SDS011;55318;52.068;5.188;2022-10-19T10:42:46;2.1;;;1.2;;
68375;SDS011;55318;52.068;5.188;2022-10-19T10:44:25;2.4;;;1.3;;
68375;SDS011;55318;52.068;5.188;2022-10-19T10:46:04;2.5;;;0.6;;
68375;SDS011;55318;52.068;5.188;2022-10-19T10:49:26;1.3;;;0.7;;
68375;SDS011;55318;52.068;5.188;2022-10-19T10:51:06;0.3;;;0.3;;
68375;SDS011;55318;52.068;5.188;2022-10-19T10:52:56;4.1;;;0.6;;
68375;SDS011;55318;52.068;5.188;2022-10-19T10:54:34;3.6;;;1.2;;
68375;SDS011;55318;52.068;5.188;2022-10-19T10:58:08;1.9;;;1.0;;
68375;SDS011;55318;52.068;5.188;2022-10-19T11:00:09;1.8;;;1.0;;
68375;SDS011;55318;52.068;5.188;2022-10-19T11:01:53;2.7;;;1.0;;
68375;SDS011;55318;52.068;5.188;2022-10-19T11:03:36;2.21;;;1.11;;
68375;SDS011;55318;52.068;5.188;2022-10-19T11:05:23;2.1;;;0.7;;
68375;SDS011;55318;52.068;5.188;2022-10-19T11:10:44;1.2;;;0.4;;
68375;SDS011;55318;52.068;5.188;2022-10-19T11:12:30;1.4;;;0.5;;
68375;SDS011;55318;52.068;5.188;2022-10-19T11:14:29;2.0;;;0.7;;
68375;SDS011;55318;52.068;5.188;2022-10-19T11:16:12;2.31;;;0.9;;
68375;SDS011;55318;52.068;5.188;2022-10-19T11:17:54;2.0;;;0.6;;
68375;SDS011;55318;52.068;5.188;2022-10-19T11:19:40;1.3;;;0.5;;
68375;SDS011;55318;52.068;5.188;2022-10-19T11:23:04;1.4;;;0.8;;
68375;SDS011;55318;52.068;5.188;2022-10-19T11:24:52;0.8;;;0.7;;
68375;SDS011;55318;52.068;5.188;2022-10-19T11:27:06;1.5;;;0.4;;
68375;SDS011;55318;52.068;5.188;2022-10-19T11:28:58;2.8;;;0.4;;
68375;SDS011;55318;52.068;5.188;2022-10-19T11:30:51;2.8;;;0.4;;
68375;SDS011;55318;52.068;5.188;2022-10-19T11:32:38;2.0;;;1.0;;
68375;SDS011;55318;52.068;5.188;2022-10-19T11:34:30;1.8;;;0.7;;
68375;SDS011;55318;52.068;5.188;2022-10-19T11:36:40;4.1;;;1.11;;
68375;SDS011;55318;52.068;5.188;2022-10-19T11:38:25;2.6;;;0.6;;
68375;SDS011;55318;52.068;5.188;2022-10-19T11:42:04;0.9;;;0.8;;
68375;SDS011;55318;52.068;5.188;2022-10-19T11:43:53;3.2;;;0.9;;
68375;SDS011;55318;52.068;5.188;2022-10-19T11:45:49;1.4;;;0.3;;
68375;SDS011;55318;52.068;5.188;2022-10-19T11:47:38;3.3;;;1.0;;
68375;SDS011;55318;52.068;5.188;2022-10-19T11:49:36;0.7;;;0.3;;
68375;SDS011;55318;52.068;5.188;2022-10-19T11:51:24;1.5;;;0.7;;
68375;SDS011;55318;52.068;5.188;2022-10-19T11:53:11;3.3;;;1.5;;
68375;SDS011;55318;52.068;5.188;2022-10-19T11:56:48;1.5;;;0.5;;
68375;SDS011;55318;52.068;5.188;2022-10-19T11:58:41;2.4;;;0.9;;
68375;SDS011;55318;52.068;5.188;2022-10-19T12:00:34;0.8;;;0.5;;
68375;SDS011;55318;52.068;5.188;2022-10-19T12:02:24;4.5;;;0.8;;
68375;SDS011;55318;52.068;5.188;2022-10-19T12:04:37;2.5;;;0.8;;
68375;SDS011;55318;52.068;5.188;2022-10-19T12:06:22;1.6;;;0.9;;
68375;SDS011;55318;52.068;5.188;2022-10-19T12:08:11;2.4;;;1.0;;
68375;SDS011;55318;52.068;5.188;2022-10-19T12:10:02;2.6;;;0.7;;
68375;SDS011;55318;52.068;5.188;2022-10-19T12:11:54;2.8;;;1.4;;
68375;SDS011;55318;52.068;5.188;2022-10-19T12:15:26;1.4;;;0.6;;
68375;SDS011;55318;52.068;5.188;2022-10-19T12:17:07;2.6;;;0.9;;
68375;SDS011;55318;52.068;5.188;2022-10-19T12:18:50;1.0;;;0.4;;
68375;SDS011;55318;52.068;5.188;2022-10-19T12:20:34;0.7;;;0.6;;
68375;SDS011;55318;52.068;5.188;2022-10-19T12:22:16;0.8;;;0.3;;
68375;SDS011;55318;52.068;5.188;2022-10-19T12:25:36;1.4;;;0.8;;
68375;SDS011;55318;52.068;5.188;2022-10-19T12:27:19;2.6;;;1.11;;
68375;SDS011;55318;52.068;5.188;2022-10-19T12:29:08;1.5;;;0.5;;
68375;SDS011;55318;52.068;5.188;2022-10-19T12:30:50;2.6;;;0.6;;
68375;SDS011;55318;52.068;5.188;2022-10-19T12:34:19;2.6;;;0.6;;
68375;SDS011;55318;52.068;5.188;2022-10-19T12:36:10;2.21;;;0.9;;
68375;SDS011;55318;52.068;5.188;2022-10-19T12:37:58;1.3;;;0.6;;
68375;SDS011;55318;52.068;5.188;2022-10-19T12:39:44;0.7;;;0.5;;
68375;SDS011;55318;52.068;5.188;2022-10-19T12:41:29;3.2;;;1.11;;
68375;SDS011;55318;52.068;5.188;2022-10-19T12:43:12;0.8;;;0.7;;
68375;SDS011;55318;52.068;5.188;2022-10-19T12:46:50;3.7;;;1.3;;
68375;SDS011;55318;52.068;5.188;2022-10-19T12:48:35;2.0;;;0.7;;
68375;SDS011;55318;52.068;5.188;2022-10-19T12:50:11;2.1;;;0.6;;
68375;SDS011;55318;52.068;5.188;2022-10-19T12:51:48;1.7;;;0.7;;
68375;SDS011;55318;52.068;5.188;2022-10-19T12:55:22;9.6;;;1.11;;
68375;SDS011;55318;52.068;5.188;2022-10-19T12:57:02;1.8;;;0.9;;
68375;SDS011;55318;52.068;5.188;2022-10-19T12:58:54;0.8;;;0.8;;